CFG162 EDDF-MKJS
Flight info
| Callsign | CFG162 |
|---|---|
| Flight time | N/A |
| Altitude | 33000 |
| Route | SOBRA2L/18 SOBRA Y180 DIK UN857 TOLVU DCT RAPOR DCT GIMER DCT ESTOC/N0474F350 DCT PON DCT DITAL DCT GODIX DCT DIDAK DCT AKEMO DCT RIVAK/M083F350 UN460 SIVIR DCT GONAN DCT 43N020W/M083F340 41N025W 39N030W/M083F360 3530N04000W 3130N05000W DCT AYTTE/M083F380 DCT MLLER/N0478F380 DCT OVALU UG629 RABAG G629 IMADI UG629 SIA LENAR7 |
| Aircraft | A339/H-SADE1E2E3GHIJ3J5M1P2RWXY/LB2D1 |
Departure
| Time | 2026-04-15 11:22 |
|---|---|
| Airport | Frankfurt Main Airport (EDDF) |
Arrival
| Time | N/A |
|---|---|
| Airport | Sangster International Airport (MKJS) |
| Time | Latitude | Longitude | Altitude | Speed | Heading |
|---|---|---|---|---|---|
| 2026-04-15 10:23 | 50.04592 | 8.57049 | 378 ft | 0 kts | 60° |
| 2026-04-15 11:03 | 50.04589 | 8.57040 | 381 ft | 2 kts | 60° |
| 2026-04-15 11:04 | 50.04581 | 8.57019 | 381 ft | 2 kts | 60° |
| 2026-04-15 11:04 | 50.04577 | 8.57007 | 381 ft | 2 kts | 57° |
| 2026-04-15 11:04 | 50.04566 | 8.56991 | 381 ft | 2 kts | 29° |
| 2026-04-15 11:04 | 50.04552 | 8.56982 | 381 ft | 2 kts | 8° |
| 2026-04-15 11:05 | 50.04537 | 8.56982 | 381 ft | 2 kts | 347° |
| 2026-04-15 11:05 | 50.04523 | 8.56990 | 381 ft | 2 kts | 326° |
| 2026-04-15 11:05 | 50.04512 | 8.57006 | 381 ft | 2 kts | 304° |
| 2026-04-15 11:05 | 50.04506 | 8.57027 | 381 ft | 2 kts | 283° |
| 2026-04-15 11:06 | 50.04505 | 8.57050 | 381 ft | 2 kts | 262° |
| 2026-04-15 11:06 | 50.04507 | 8.57063 | 381 ft | 0 kts | 249° |
| 2026-04-15 11:06 | 50.04508 | 8.57068 | 381 ft | 0 kts | 249° |
| 2026-04-15 11:12 | 50.04507 | 8.57065 | 381 ft | 1 kts | 249° |
| 2026-04-15 11:13 | 50.04496 | 8.57019 | 381 ft | 6 kts | 250° |
| 2026-04-15 11:13 | 50.04476 | 8.56935 | 381 ft | 9 kts | 250° |
| 2026-04-15 11:13 | 50.04435 | 8.56854 | 381 ft | 10 kts | 202° |
| 2026-04-15 11:13 | 50.04359 | 8.56831 | 381 ft | 12 kts | 192° |
| 2026-04-15 11:14 | 50.04274 | 8.56798 | 381 ft | 12 kts | 210° |
| 2026-04-15 11:14 | 50.04229 | 8.56701 | 381 ft | 11 kts | 248° |
| 2026-04-15 11:14 | 50.04201 | 8.56590 | 381 ft | 10 kts | 250° |
| 2026-04-15 11:14 | 50.04176 | 8.56486 | 381 ft | 10 kts | 250° |
| 2026-04-15 11:15 | 50.04149 | 8.56371 | 381 ft | 12 kts | 250° |
| 2026-04-15 11:15 | 50.04116 | 8.56235 | 381 ft | 14 kts | 250° |
| 2026-04-15 11:15 | 50.04079 | 8.56083 | 381 ft | 15 kts | 250° |
| 2026-04-15 11:15 | 50.04040 | 8.55917 | 381 ft | 17 kts | 250° |
| 2026-04-15 11:16 | 50.03997 | 8.55737 | 381 ft | 18 kts | 250° |
| 2026-04-15 11:16 | 50.03950 | 8.55538 | 381 ft | 20 kts | 250° |
| 2026-04-15 11:16 | 50.03898 | 8.55331 | 381 ft | 20 kts | 249° |
| 2026-04-15 11:16 | 50.03849 | 8.55117 | 381 ft | 21 kts | 250° |
| 2026-04-15 11:17 | 50.03798 | 8.54903 | 381 ft | 21 kts | 250° |
| 2026-04-15 11:17 | 50.03748 | 8.54692 | 381 ft | 20 kts | 250° |
| 2026-04-15 11:17 | 50.03699 | 8.54489 | 381 ft | 20 kts | 250° |
| 2026-04-15 11:17 | 50.03649 | 8.54278 | 381 ft | 21 kts | 250° |
| 2026-04-15 11:18 | 50.03595 | 8.54054 | 381 ft | 22 kts | 250° |
| 2026-04-15 11:18 | 50.03540 | 8.53822 | 381 ft | 23 kts | 250° |
| 2026-04-15 11:18 | 50.03482 | 8.53583 | 381 ft | 23 kts | 250° |
| 2026-04-15 11:18 | 50.03427 | 8.53351 | 381 ft | 22 kts | 250° |
| 2026-04-15 11:19 | 50.03373 | 8.53125 | 381 ft | 21 kts | 250° |
| 2026-04-15 11:19 | 50.03326 | 8.52928 | 381 ft | 14 kts | 250° |
| 2026-04-15 11:19 | 50.03296 | 8.52803 | 381 ft | 8 kts | 250° |
| 2026-04-15 11:19 | 50.03285 | 8.52760 | 381 ft | 4 kts | 250° |
| 2026-04-15 11:20 | 50.03270 | 8.52696 | 381 ft | 8 kts | 250° |
| 2026-04-15 11:20 | 50.03239 | 8.52609 | 381 ft | 10 kts | 217° |
| 2026-04-15 11:20 | 50.03170 | 8.52593 | 381 ft | 2 kts | 180° |
| 2026-04-15 11:20 | 50.03169 | 8.52593 | 381 ft | 0 kts | 180° |
| 2026-04-15 11:21 | 50.03073 | 8.52593 | 380 ft | 42 kts | 180° |
| 2026-04-15 11:21 | 50.02544 | 8.52597 | 380 ft | 105 kts | 180° |
| 2026-04-15 11:21 | 50.01638 | 8.52606 | 380 ft | 157 kts | 179° |
| 2026-04-15 11:22 | 50.00435 | 8.52614 | 652 ft | 177 kts | 179° |
| 2026-04-15 11:22 | 49.99209 | 8.52648 | 1263 ft | 177 kts | 178° |
| 2026-04-15 11:22 | 49.97987 | 8.52695 | 1865 ft | 179 kts | 177° |
| 2026-04-15 11:22 | 49.96750 | 8.52788 | 2342 ft | 182 kts | 176° |
| 2026-04-15 11:23 | 49.95439 | 8.52896 | 2607 ft | 196 kts | 177° |
| 2026-04-15 11:23 | 49.94024 | 8.53001 | 2884 ft | 210 kts | 177° |
| 2026-04-15 11:23 | 49.92506 | 8.53109 | 3170 ft | 225 kts | 177° |
| 2026-04-15 11:23 | 49.90902 | 8.53222 | 3472 ft | 240 kts | 177° |
| 2026-04-15 11:24 | 49.89182 | 8.53340 | 3784 ft | 254 kts | 177° |
| 2026-04-15 11:24 | 49.87380 | 8.53294 | 4278 ft | 262 kts | 189° |
| 2026-04-15 11:24 | 49.85620 | 8.52562 | 4852 ft | 266 kts | 199° |
| 2026-04-15 11:24 | 49.83879 | 8.51576 | 5428 ft | 270 kts | 200° |
| 2026-04-15 11:25 | 49.82115 | 8.50562 | 5962 ft | 272 kts | 201° |
| 2026-04-15 11:25 | 49.80344 | 8.49536 | 6470 ft | 275 kts | 200° |
| 2026-04-15 11:25 | 49.78550 | 8.48502 | 6974 ft | 277 kts | 201° |
| 2026-04-15 11:25 | 49.76905 | 8.46999 | 7431 ft | 280 kts | 227° |
| 2026-04-15 11:26 | 49.75940 | 8.44444 | 7950 ft | 283 kts | 256° |
| 2026-04-15 11:26 | 49.75870 | 8.41401 | 8480 ft | 285 kts | 283° |
| 2026-04-15 11:26 | 49.76368 | 8.38465 | 9013 ft | 287 kts | 286° |
| 2026-04-15 11:26 | 49.76885 | 8.35502 | 9543 ft | 288 kts | 285° |
| 2026-04-15 11:27 | 49.77395 | 8.32476 | 10049 ft | 290 kts | 284° |
| 2026-04-15 11:27 | 49.77892 | 8.29449 | 10413 ft | 299 kts | 284° |
| 2026-04-15 11:27 | 49.78402 | 8.26291 | 10651 ft | 311 kts | 284° |
| 2026-04-15 11:27 | 49.78941 | 8.22934 | 10891 ft | 324 kts | 284° |
| 2026-04-15 11:28 | 49.79498 | 8.19490 | 11099 ft | 336 kts | 283° |
| 2026-04-15 11:28 | 49.80058 | 8.15948 | 11357 ft | 347 kts | 283° |
| 2026-04-15 11:28 | 49.80633 | 8.12288 | 11844 ft | 350 kts | 283° |
| 2026-04-15 11:28 | 49.81202 | 8.08692 | 12440 ft | 350 kts | 283° |
| 2026-04-15 11:29 | 49.81782 | 8.05021 | 13042 ft | 351 kts | 283° |
| 2026-04-15 11:29 | 49.82360 | 8.01370 | 13613 ft | 352 kts | 283° |
| 2026-04-15 11:29 | 49.82945 | 7.97671 | 14172 ft | 353 kts | 283° |
| 2026-04-15 11:29 | 49.83525 | 7.93986 | 14691 ft | 356 kts | 283° |
| 2026-04-15 11:30 | 49.84108 | 7.90272 | 15189 ft | 358 kts | 283° |
| 2026-04-15 11:30 | 49.84698 | 7.86495 | 15661 ft | 361 kts | 283° |
| 2026-04-15 11:30 | 49.85287 | 7.82714 | 16128 ft | 364 kts | 283° |
| 2026-04-15 11:30 | 49.85874 | 7.78942 | 16589 ft | 367 kts | 284° |
| 2026-04-15 11:31 | 49.86484 | 7.75068 | 17044 ft | 371 kts | 284° |
| 2026-04-15 11:31 | 49.87102 | 7.71183 | 17503 ft | 373 kts | 284° |
| 2026-04-15 11:31 | 49.87711 | 7.67302 | 17959 ft | 376 kts | 284° |
| 2026-04-15 11:31 | 49.88326 | 7.63358 | 18407 ft | 377 kts | 284° |
| 2026-04-15 11:32 | 49.88940 | 7.59386 | 18837 ft | 380 kts | 284° |
| 2026-04-15 11:32 | 49.89555 | 7.55386 | 19300 ft | 382 kts | 284° |
| 2026-04-15 11:32 | 49.90168 | 7.51391 | 19760 ft | 384 kts | 284° |
| 2026-04-15 11:32 | 49.90782 | 7.47389 | 20198 ft | 385 kts | 284° |
| 2026-04-15 11:33 | 49.91402 | 7.43329 | 20605 ft | 388 kts | 284° |
| 2026-04-15 11:33 | 49.92015 | 7.39302 | 21010 ft | 391 kts | 284° |
| 2026-04-15 11:33 | 49.92641 | 7.35183 | 21430 ft | 392 kts | 284° |
| 2026-04-15 11:33 | 49.93264 | 7.31074 | 21815 ft | 394 kts | 283° |
| 2026-04-15 11:34 | 49.93889 | 7.26940 | 22187 ft | 397 kts | 283° |
| 2026-04-15 11:34 | 49.94518 | 7.22765 | 22569 ft | 399 kts | 283° |
| 2026-04-15 11:34 | 49.95155 | 7.18534 | 22954 ft | 401 kts | 283° |
| 2026-04-15 11:34 | 49.95786 | 7.14331 | 23324 ft | 403 kts | 282° |
| 2026-04-15 11:35 | 49.96419 | 7.10098 | 23700 ft | 405 kts | 283° |
| 2026-04-15 11:35 | 49.97045 | 7.05888 | 24068 ft | 406 kts | 283° |
| 2026-04-15 11:35 | 49.97678 | 7.01624 | 24412 ft | 408 kts | 283° |
| 2026-04-15 11:35 | 49.98315 | 6.97340 | 24728 ft | 410 kts | 283° |
| 2026-04-15 11:36 | 49.98850 | 6.93005 | 25041 ft | 412 kts | 278° |
| 2026-04-15 11:36 | 49.99130 | 6.88567 | 25387 ft | 413 kts | 273° |
| 2026-04-15 11:36 | 49.99150 | 6.84112 | 25716 ft | 415 kts | 269° |
| 2026-04-15 11:36 | 49.99034 | 6.79656 | 26027 ft | 417 kts | 268° |
| 2026-04-15 11:37 | 49.98893 | 6.75118 | 26324 ft | 418 kts | 268° |
| 2026-04-15 11:37 | 49.98751 | 6.70666 | 26610 ft | 420 kts | 268° |
| 2026-04-15 11:37 | 49.98608 | 6.66099 | 26889 ft | 422 kts | 268° |
| 2026-04-15 11:37 | 49.98447 | 6.61518 | 27179 ft | 424 kts | 265° |
| 2026-04-15 11:38 | 49.98008 | 6.57033 | 27454 ft | 426 kts | 259° |
| 2026-04-15 11:38 | 49.97213 | 6.52570 | 27702 ft | 429 kts | 253° |
| 2026-04-15 11:38 | 49.96119 | 6.48287 | 27938 ft | 432 kts | 249° |
| 2026-04-15 11:38 | 49.94925 | 6.44013 | 28193 ft | 433 kts | 249° |
| 2026-04-15 11:39 | 49.93710 | 6.39715 | 28436 ft | 435 kts | 249° |
| 2026-04-15 11:39 | 49.92483 | 6.35371 | 28681 ft | 437 kts | 249° |
| 2026-04-15 11:39 | 49.91270 | 6.31074 | 28921 ft | 438 kts | 248° |
| 2026-04-15 11:39 | 49.90055 | 6.26772 | 29135 ft | 441 kts | 248° |
| 2026-04-15 11:40 | 49.88797 | 6.22394 | 29356 ft | 442 kts | 248° |
| 2026-04-15 11:40 | 49.87530 | 6.18079 | 29589 ft | 444 kts | 246° |
| 2026-04-15 11:40 | 49.86101 | 6.13826 | 29815 ft | 447 kts | 243° |
| 2026-04-15 11:40 | 49.84505 | 6.09643 | 30018 ft | 450 kts | 240° |
| 2026-04-15 11:41 | 49.82790 | 6.05667 | 30215 ft | 452 kts | 237° |
| 2026-04-15 11:41 | 49.80962 | 6.01699 | 30435 ft | 453 kts | 237° |
| 2026-04-15 11:41 | 49.79128 | 5.97714 | 30669 ft | 454 kts | 237° |
| 2026-04-15 11:41 | 49.77360 | 5.93691 | 30904 ft | 454 kts | 239° |
| 2026-04-15 11:42 | 49.75735 | 5.89560 | 31129 ft | 454 kts | 243° |
| 2026-04-15 11:42 | 49.74249 | 5.85294 | 31414 ft | 451 kts | 245° |
| 2026-04-15 11:42 | 49.72908 | 5.80910 | 31678 ft | 450 kts | 249° |
| 2026-04-15 11:42 | 49.71728 | 5.76453 | 31903 ft | 450 kts | 251° |
| 2026-04-15 11:43 | 49.70674 | 5.71952 | 32104 ft | 450 kts | 252° |
| 2026-04-15 11:43 | 49.69622 | 5.67420 | 32293 ft | 451 kts | 252° |
| 2026-04-15 11:43 | 49.68561 | 5.62859 | 32502 ft | 452 kts | 252° |
| 2026-04-15 11:43 | 49.67510 | 5.58351 | 32699 ft | 452 kts | 252° |
| 2026-04-15 11:44 | 49.66434 | 5.53743 | 32893 ft | 453 kts | 252° |
| 2026-04-15 11:44 | 49.65368 | 5.49192 | 33086 ft | 453 kts | 252° |
| 2026-04-15 11:44 | 49.63221 | 5.40068 | 33165 ft | 454 kts | 252° |
| 2026-04-15 11:45 | 49.61179 | 5.30986 | 33171 ft | 452 kts | 253° |
| 2026-04-15 11:45 | 49.59247 | 5.21723 | 33171 ft | 452 kts | 255° |
| 2026-04-15 11:46 | 49.57587 | 5.12442 | 33172 ft | 451 kts | 256° |
| 2026-04-15 11:46 | 49.55948 | 5.03187 | 33172 ft | 451 kts | 256° |
| 2026-04-15 11:47 | 49.54293 | 4.93903 | 33173 ft | 451 kts | 256° |
| 2026-04-15 11:47 | 49.52634 | 4.84632 | 33173 ft | 451 kts | 256° |
| 2026-04-15 11:48 | 49.50967 | 4.75380 | 33174 ft | 450 kts | 256° |
| 2026-04-15 11:48 | 49.49290 | 4.66120 | 33173 ft | 451 kts | 256° |
| 2026-04-15 11:49 | 49.47609 | 4.56887 | 33174 ft | 449 kts | 255° |
| 2026-04-15 11:49 | 49.45931 | 4.47715 | 33175 ft | 447 kts | 255° |
| 2026-04-15 11:50 | 49.44255 | 4.38607 | 33174 ft | 446 kts | 255° |
| 2026-04-15 11:50 | 49.42565 | 4.29471 | 33174 ft | 446 kts | 255° |
| 2026-04-15 11:51 | 49.40857 | 4.20272 | 33176 ft | 446 kts | 254° |
| 2026-04-15 11:51 | 49.39151 | 4.11145 | 33178 ft | 447 kts | 254° |
| 2026-04-15 11:52 | 49.37438 | 4.02029 | 33177 ft | 446 kts | 254° |
| 2026-04-15 11:52 | 49.35918 | 3.92809 | 33176 ft | 446 kts | 258° |
| 2026-04-15 11:53 | 49.34604 | 3.83580 | 33172 ft | 445 kts | 258° |
| 2026-04-15 11:53 | 49.33280 | 3.74345 | 33171 ft | 443 kts | 257° |
| 2026-04-15 11:54 | 49.31960 | 3.65203 | 33171 ft | 443 kts | 257° |
| 2026-04-15 11:54 | 49.30624 | 3.56015 | 33169 ft | 442 kts | 257° |
| 2026-04-15 11:55 | 49.29286 | 3.46856 | 33172 ft | 441 kts | 257° |
| 2026-04-15 11:55 | 49.27945 | 3.37750 | 33175 ft | 441 kts | 257° |
| 2026-04-15 11:56 | 49.26597 | 3.28632 | 33173 ft | 441 kts | 256° |
| 2026-04-15 11:56 | 49.25246 | 3.19569 | 33175 ft | 441 kts | 256° |
| 2026-04-15 11:57 | 49.23190 | 3.05841 | 33172 ft | 439 kts | 256° |
| 2026-04-15 11:58 | 49.21823 | 2.96788 | 33167 ft | 438 kts | 256° |
| 2026-04-15 11:58 | 49.20446 | 2.87730 | 33170 ft | 438 kts | 256° |
| 2026-04-15 11:59 | 49.19067 | 2.78694 | 33175 ft | 438 kts | 255° |
| 2026-04-15 11:59 | 49.17679 | 2.69680 | 33173 ft | 437 kts | 255° |
| 2026-04-15 12:00 | 49.16286 | 2.60665 | 33404 ft | 439 kts | 255° |
| 2026-04-15 12:00 | 49.15588 | 2.56169 | 33714 ft | 437 kts | 255° |
| 2026-04-15 12:00 | 49.14890 | 2.51689 | 34032 ft | 434 kts | 255° |
| 2026-04-15 12:00 | 49.14190 | 2.47209 | 34324 ft | 432 kts | 255° |
| 2026-04-15 12:01 | 49.13503 | 2.42797 | 34587 ft | 431 kts | 256° |
| 2026-04-15 12:01 | 49.12911 | 2.38296 | 34833 ft | 431 kts | 258° |
| 2026-04-15 12:01 | 49.12461 | 2.33813 | 35053 ft | 431 kts | 259° |
| 2026-04-15 12:01 | 49.12041 | 2.29308 | 35171 ft | 430 kts | 259° |
| 2026-04-15 12:02 | 49.11617 | 2.24773 | 35177 ft | 430 kts | 259° |
| 2026-04-15 12:02 | 49.10775 | 2.15821 | 35180 ft | 427 kts | 258° |
| 2026-04-15 12:03 | 49.09584 | 2.07016 | 35176 ft | 425 kts | 253° |
| 2026-04-15 12:03 | 49.07834 | 1.98449 | 35178 ft | 422 kts | 248° |
| 2026-04-15 12:04 | 49.05580 | 1.90253 | 35177 ft | 421 kts | 244° |
| 2026-04-15 12:04 | 49.03151 | 1.82157 | 35169 ft | 420 kts | 244° |
| 2026-04-15 12:05 | 49.00729 | 1.74121 | 35165 ft | 419 kts | 244° |
| 2026-04-15 12:05 | 48.98291 | 1.66068 | 35162 ft | 418 kts | 244° |
| 2026-04-15 12:06 | 48.95853 | 1.58051 | 35160 ft | 419 kts | 244° |
| 2026-04-15 12:06 | 48.93404 | 1.50020 | 35154 ft | 418 kts | 244° |
| 2026-04-15 12:07 | 48.90965 | 1.42052 | 35153 ft | 417 kts | 244° |
| 2026-04-15 12:07 | 48.88524 | 1.34105 | 35148 ft | 419 kts | 243° |
| 2026-04-15 12:08 | 48.86058 | 1.26098 | 35145 ft | 419 kts | 243° |
| 2026-04-15 12:08 | 48.83586 | 1.18097 | 35147 ft | 419 kts | 243° |
| 2026-04-15 12:09 | 48.81124 | 1.10162 | 35147 ft | 418 kts | 243° |
| 2026-04-15 12:09 | 48.78648 | 1.02214 | 35105 ft | 418 kts | 243° |
| 2026-04-15 12:10 | 48.76172 | 0.94287 | 35130 ft | 417 kts | 242° |
| 2026-04-15 12:10 | 48.73511 | 0.86550 | 35133 ft | 415 kts | 238° |
| 2026-04-15 12:11 | 48.70511 | 0.79089 | 35131 ft | 414 kts | 237° |
| 2026-04-15 12:11 | 48.67528 | 0.71705 | 35127 ft | 414 kts | 237° |
| 2026-04-15 12:12 | 48.64540 | 0.64334 | 35133 ft | 413 kts | 237° |
| 2026-04-15 12:12 | 48.61529 | 0.56940 | 35129 ft | 412 kts | 237° |
| 2026-04-15 12:13 | 48.58522 | 0.49585 | 35122 ft | 412 kts | 237° |
| 2026-04-15 12:13 | 48.55523 | 0.42268 | 35131 ft | 413 kts | 237° |
| 2026-04-15 12:14 | 48.52530 | 0.34986 | 35127 ft | 413 kts | 236° |
| 2026-04-15 12:14 | 48.49538 | 0.27721 | 35131 ft | 413 kts | 236° |
| 2026-04-15 12:15 | 48.46516 | 0.20407 | 35124 ft | 412 kts | 236° |
| 2026-04-15 12:15 | 48.43494 | 0.13113 | 35126 ft | 412 kts | 236° |
| 2026-04-15 12:16 | 48.40463 | 0.05820 | 35124 ft | 412 kts | 236° |
| 2026-04-15 12:16 | 48.37438 | -0.01437 | 35120 ft | 411 kts | 236° |
| 2026-04-15 12:17 | 48.34180 | -0.08442 | 35120 ft | 409 kts | 232° |
| 2026-04-15 12:17 | 48.30810 | -0.15265 | 35118 ft | 409 kts | 232° |
| 2026-04-15 12:18 | 48.27433 | -0.22122 | 35118 ft | 409 kts | 233° |
| 2026-04-15 12:18 | 48.24365 | -0.29247 | 35120 ft | 409 kts | 238° |
| 2026-04-15 12:19 | 48.21519 | -0.36594 | 35122 ft | 409 kts | 238° |
| 2026-04-15 12:19 | 48.18640 | -0.43967 | 35119 ft | 408 kts | 238° |
| 2026-04-15 12:20 | 48.15797 | -0.51243 | 35120 ft | 408 kts | 238° |
| 2026-04-15 12:20 | 48.12947 | -0.58516 | 35124 ft | 408 kts | 238° |
| 2026-04-15 12:21 | 48.10073 | -0.65836 | 35133 ft | 407 kts | 238° |
| 2026-04-15 12:21 | 48.07222 | -0.73082 | 35140 ft | 406 kts | 238° |
| 2026-04-15 12:22 | 48.04363 | -0.80332 | 35141 ft | 407 kts | 238° |
| 2026-04-15 12:22 | 48.01495 | -0.87578 | 35140 ft | 406 kts | 238° |
| 2026-04-15 12:23 | 47.98631 | -0.94799 | 35144 ft | 406 kts | 238° |
| 2026-04-15 12:23 | 47.95763 | -1.02005 | 35134 ft | 405 kts | 238° |
| 2026-04-15 12:24 | 47.92909 | -1.09164 | 35140 ft | 405 kts | 238° |
| 2026-04-15 12:24 | 47.90021 | -1.16387 | 35135 ft | 405 kts | 238° |
| 2026-04-15 12:25 | 47.87140 | -1.23564 | 35140 ft | 406 kts | 238° |
| 2026-04-15 12:25 | 47.84254 | -1.30742 | 35148 ft | 405 kts | 238° |
| 2026-04-15 12:26 | 47.81375 | -1.37886 | 35140 ft | 405 kts | 238° |
| 2026-04-15 12:26 | 47.78470 | -1.45074 | 35144 ft | 405 kts | 238° |
| 2026-04-15 12:27 | 47.75577 | -1.52212 | 35146 ft | 405 kts | 238° |
| 2026-04-15 12:27 | 47.72684 | -1.59336 | 35147 ft | 406 kts | 238° |
| 2026-04-15 12:28 | 47.69758 | -1.66511 | 35148 ft | 406 kts | 238° |
| 2026-04-15 12:28 | 47.66839 | -1.73656 | 35150 ft | 406 kts | 238° |
| 2026-04-15 12:29 | 47.63916 | -1.80795 | 35148 ft | 407 kts | 238° |
| 2026-04-15 12:29 | 47.61002 | -1.87894 | 35146 ft | 406 kts | 238° |
| 2026-04-15 12:30 | 47.58071 | -1.95010 | 35144 ft | 406 kts | 238° |
| 2026-04-15 12:30 | 47.55130 | -2.02138 | 35144 ft | 405 kts | 238° |
| 2026-04-15 12:31 | 47.52206 | -2.09195 | 35147 ft | 405 kts | 238° |
| 2026-04-15 12:31 | 47.49262 | -2.16283 | 35148 ft | 404 kts | 238° |
| 2026-04-15 12:32 | 47.46334 | -2.23316 | 35150 ft | 404 kts | 238° |
| 2026-04-15 12:32 | 47.43406 | -2.30340 | 35149 ft | 403 kts | 238° |
| 2026-04-15 12:33 | 47.40473 | -2.37350 | 35151 ft | 403 kts | 238° |
| 2026-04-15 12:33 | 47.37532 | -2.44366 | 35154 ft | 404 kts | 238° |
| 2026-04-15 12:34 | 47.34575 | -2.51399 | 35152 ft | 403 kts | 238° |
| 2026-04-15 12:34 | 47.31629 | -2.58385 | 35151 ft | 402 kts | 238° |
| 2026-04-15 12:35 | 47.28682 | -2.65362 | 35152 ft | 402 kts | 238° |
| 2026-04-15 12:35 | 47.25735 | -2.72318 | 35151 ft | 401 kts | 238° |
| 2026-04-15 12:36 | 47.22787 | -2.79253 | 35153 ft | 401 kts | 238° |
| 2026-04-15 12:36 | 47.19841 | -2.86169 | 35154 ft | 400 kts | 237° |
| 2026-04-15 12:37 | 47.16972 | -2.93085 | 35158 ft | 400 kts | 240° |
| 2026-04-15 12:37 | 47.14465 | -3.00379 | 35153 ft | 400 kts | 245° |
| 2026-04-15 12:38 | 47.12417 | -3.07924 | 35145 ft | 401 kts | 249° |
| 2026-04-15 12:38 | 47.10762 | -3.15731 | 35140 ft | 401 kts | 251° |
| 2026-04-15 12:39 | 47.09157 | -3.23551 | 35143 ft | 401 kts | 251° |
| 2026-04-15 12:39 | 47.07554 | -3.31353 | 35146 ft | 401 kts | 252° |
| 2026-04-15 12:40 | 47.05962 | -3.39121 | 35149 ft | 401 kts | 252° |
| 2026-04-15 12:40 | 47.04360 | -3.46913 | 35148 ft | 400 kts | 252° |
| 2026-04-15 12:41 | 47.02744 | -3.54734 | 35149 ft | 400 kts | 252° |
| 2026-04-15 12:41 | 47.01135 | -3.62474 | 35150 ft | 399 kts | 252° |
| 2026-04-15 12:42 | 46.99520 | -3.70208 | 35149 ft | 398 kts | 251° |
| 2026-04-15 12:42 | 46.97912 | -3.77908 | 35154 ft | 398 kts | 251° |
| 2026-04-15 12:43 | 46.96301 | -3.85577 | 35152 ft | 397 kts | 251° |
| 2026-04-15 12:43 | 46.94669 | -3.93316 | 35148 ft | 396 kts | 251° |
| 2026-04-15 12:44 | 46.93053 | -4.00964 | 35153 ft | 396 kts | 252° |
| 2026-04-15 12:44 | 46.91421 | -4.08636 | 35151 ft | 396 kts | 252° |
| 2026-04-15 12:45 | 46.89796 | -4.16253 | 35155 ft | 396 kts | 252° |
| 2026-04-15 12:45 | 46.88162 | -4.23899 | 35154 ft | 396 kts | 252° |
| 2026-04-15 12:46 | 46.86519 | -4.31549 | 35154 ft | 395 kts | 252° |
| 2026-04-15 12:46 | 46.84872 | -4.39191 | 35147 ft | 394 kts | 251° |
| 2026-04-15 12:47 | 46.83226 | -4.46798 | 35154 ft | 394 kts | 252° |
| 2026-04-15 12:47 | 46.81581 | -4.54379 | 35148 ft | 393 kts | 252° |
| 2026-04-15 12:48 | 46.79937 | -4.61919 | 35148 ft | 392 kts | 252° |
| 2026-04-15 12:48 | 46.78283 | -4.69477 | 35148 ft | 392 kts | 251° |
| 2026-04-15 12:49 | 46.76629 | -4.77012 | 35148 ft | 392 kts | 251° |
| 2026-04-15 12:49 | 46.74971 | -4.84539 | 35152 ft | 392 kts | 251° |
| 2026-04-15 12:50 | 46.73306 | -4.92078 | 35148 ft | 391 kts | 251° |
| 2026-04-15 12:50 | 46.71634 | -4.99605 | 35148 ft | 390 kts | 252° |
| 2026-04-15 12:51 | 46.69969 | -5.07070 | 35144 ft | 390 kts | 252° |
| 2026-04-15 12:51 | 46.68292 | -5.14582 | 35145 ft | 390 kts | 251° |
| 2026-04-15 12:52 | 46.66614 | -5.22058 | 35147 ft | 389 kts | 252° |
| 2026-04-15 12:52 | 46.64932 | -5.29532 | 35147 ft | 390 kts | 251° |
| 2026-04-15 12:53 | 46.63247 | -5.36985 | 35144 ft | 389 kts | 252° |
| 2026-04-15 12:53 | 46.61567 | -5.44405 | 35144 ft | 389 kts | 252° |
| 2026-04-15 12:54 | 46.59872 | -5.51859 | 35144 ft | 389 kts | 252° |
| 2026-04-15 12:54 | 46.58174 | -5.59304 | 35140 ft | 389 kts | 252° |
| 2026-04-15 12:55 | 46.56470 | -5.66747 | 35144 ft | 390 kts | 251° |
| 2026-04-15 12:55 | 46.54761 | -5.74178 | 35138 ft | 389 kts | 251° |
| 2026-04-15 12:56 | 46.53050 | -5.81603 | 35142 ft | 389 kts | 251° |
| 2026-04-15 12:56 | 46.51324 | -5.89061 | 35139 ft | 389 kts | 251° |
| 2026-04-15 12:57 | 46.49609 | -5.96447 | 35142 ft | 389 kts | 251° |
| 2026-04-15 12:57 | 46.47879 | -6.03867 | 35134 ft | 388 kts | 251° |
| 2026-04-15 12:58 | 46.46160 | -6.11226 | 35140 ft | 389 kts | 251° |
| 2026-04-15 12:58 | 46.44420 | -6.18647 | 35141 ft | 389 kts | 251° |
| 2026-04-15 12:59 | 46.41805 | -6.29747 | 35141 ft | 389 kts | 252° |
| 2026-04-15 12:59 | 46.40053 | -6.37157 | 35139 ft | 389 kts | 252° |
| 2026-04-15 13:00 | 46.38305 | -6.44518 | 35140 ft | 389 kts | 251° |
| 2026-04-15 13:00 | 46.36547 | -6.51890 | 35133 ft | 388 kts | 252° |
| 2026-04-15 13:01 | 46.34801 | -6.59215 | 35134 ft | 388 kts | 252° |
| 2026-04-15 13:01 | 46.33029 | -6.66610 | 35138 ft | 388 kts | 251° |
| 2026-04-15 13:02 | 46.31271 | -6.73915 | 35132 ft | 388 kts | 251° |
| 2026-04-15 13:02 | 46.29490 | -6.81299 | 35133 ft | 388 kts | 251° |
| 2026-04-15 13:03 | 46.27717 | -6.88620 | 35128 ft | 388 kts | 251° |
| 2026-04-15 13:03 | 46.25940 | -6.95935 | 35129 ft | 388 kts | 252° |
| 2026-04-15 13:04 | 46.24157 | -7.03253 | 35129 ft | 388 kts | 251° |
| 2026-04-15 13:04 | 46.22364 | -7.10594 | 35135 ft | 389 kts | 252° |
| 2026-04-15 13:05 | 46.20565 | -7.17928 | 35129 ft | 389 kts | 251° |
| 2026-04-15 13:05 | 46.18757 | -7.25277 | 35127 ft | 389 kts | 251° |
| 2026-04-15 13:06 | 46.16949 | -7.32605 | 35132 ft | 390 kts | 252° |
| 2026-04-15 13:06 | 46.15136 | -7.39921 | 35130 ft | 390 kts | 252° |
| 2026-04-15 13:07 | 46.13316 | -7.47254 | 35129 ft | 390 kts | 252° |
| 2026-04-15 13:07 | 46.11480 | -7.54605 | 35143 ft | 391 kts | 252° |
| 2026-04-15 13:08 | 46.09640 | -7.61957 | 35137 ft | 392 kts | 252° |
| 2026-04-15 13:08 | 46.07793 | -7.69314 | 35143 ft | 392 kts | 251° |
| 2026-04-15 13:09 | 46.05935 | -7.76681 | 35133 ft | 392 kts | 251° |
| 2026-04-15 13:09 | 46.04077 | -7.84024 | 35130 ft | 392 kts | 251° |
| 2026-04-15 13:10 | 46.02380 | -7.91438 | 35133 ft | 393 kts | 255° |
| 2026-04-15 13:10 | 46.01141 | -7.99025 | 35141 ft | 392 kts | 259° |
| 2026-04-15 13:11 | 46.00372 | -8.06780 | 35132 ft | 393 kts | 264° |
| 2026-04-15 13:11 | 46.00088 | -8.14593 | 35128 ft | 394 kts | 268° |
| 2026-04-15 13:12 | 46.00080 | -8.22456 | 35126 ft | 393 kts | 268° |
| 2026-04-15 13:12 | 46.00077 | -8.30307 | 35120 ft | 395 kts | 269° |
| 2026-04-15 13:13 | 46.00078 | -8.38132 | 35127 ft | 393 kts | 269° |
| 2026-04-15 13:13 | 46.00076 | -8.45962 | 35123 ft | 393 kts | 269° |
| 2026-04-15 13:14 | 46.00067 | -8.53782 | 35123 ft | 393 kts | 269° |
| 2026-04-15 13:14 | 46.00058 | -8.61629 | 35119 ft | 393 kts | 269° |
| 2026-04-15 13:15 | 45.99955 | -8.69458 | 35124 ft | 393 kts | 266° |
| 2026-04-15 13:15 | 45.99395 | -8.77263 | 35120 ft | 393 kts | 261° |
| 2026-04-15 13:16 | 45.98353 | -8.84937 | 35117 ft | 394 kts | 257° |
| 2026-04-15 13:16 | 45.97105 | -8.92541 | 35117 ft | 394 kts | 257° |
| 2026-04-15 13:17 | 45.95839 | -9.00201 | 35113 ft | 394 kts | 258° |
| 2026-04-15 13:17 | 45.94571 | -9.07818 | 35112 ft | 393 kts | 258° |
| 2026-04-15 13:18 | 45.93301 | -9.15387 | 35113 ft | 393 kts | 258° |
| 2026-04-15 13:18 | 45.92018 | -9.23000 | 35118 ft | 394 kts | 258° |
| 2026-04-15 13:19 | 45.90733 | -9.30594 | 35119 ft | 393 kts | 257° |
| 2026-04-15 13:19 | 45.89437 | -9.38206 | 35116 ft | 393 kts | 257° |
| 2026-04-15 13:20 | 45.88137 | -9.45800 | 35118 ft | 394 kts | 258° |
| 2026-04-15 13:20 | 45.86831 | -9.53414 | 35118 ft | 394 kts | 257° |
| 2026-04-15 13:21 | 45.85519 | -9.61019 | 35119 ft | 394 kts | 258° |
| 2026-04-15 13:21 | 45.84209 | -9.68578 | 35123 ft | 394 kts | 257° |
| 2026-04-15 13:22 | 45.82889 | -9.76169 | 35119 ft | 394 kts | 257° |
| 2026-04-15 13:22 | 45.81554 | -9.83809 | 35118 ft | 394 kts | 257° |
| 2026-04-15 13:23 | 45.80232 | -9.91356 | 35119 ft | 394 kts | 257° |
| 2026-04-15 13:23 | 45.78885 | -9.98981 | 35118 ft | 394 kts | 257° |
| 2026-04-15 13:24 | 45.77551 | -10.06516 | 35116 ft | 394 kts | 257° |
| 2026-04-15 13:24 | 45.76201 | -10.14116 | 35114 ft | 395 kts | 257° |
| 2026-04-15 13:25 | 45.74840 | -10.21737 | 35116 ft | 394 kts | 257° |
| 2026-04-15 13:25 | 45.73490 | -10.29286 | 35118 ft | 395 kts | 257° |
| 2026-04-15 13:26 | 45.72120 | -10.36897 | 35115 ft | 396 kts | 257° |
| 2026-04-15 13:26 | 45.70745 | -10.44504 | 35116 ft | 396 kts | 257° |
| 2026-04-15 13:27 | 45.69370 | -10.52089 | 35113 ft | 396 kts | 257° |
| 2026-04-15 13:27 | 45.67986 | -10.59688 | 35116 ft | 397 kts | 257° |
| 2026-04-15 13:28 | 45.66596 | -10.67278 | 35118 ft | 397 kts | 257° |
| 2026-04-15 13:28 | 45.65201 | -10.74877 | 35113 ft | 397 kts | 257° |
| 2026-04-15 13:29 | 45.63797 | -10.82486 | 35112 ft | 397 kts | 257° |
| 2026-04-15 13:29 | 45.62389 | -10.90085 | 35114 ft | 397 kts | 257° |
| 2026-04-15 13:30 | 45.60980 | -10.97663 | 35110 ft | 397 kts | 257° |
| 2026-04-15 13:30 | 45.59557 | -11.05261 | 35108 ft | 397 kts | 257° |
| 2026-04-15 13:31 | 45.58131 | -11.12854 | 35111 ft | 397 kts | 256° |
| 2026-04-15 13:31 | 45.56701 | -11.20435 | 35112 ft | 397 kts | 257° |
| 2026-04-15 13:32 | 45.55271 | -11.27984 | 35111 ft | 397 kts | 257° |
| 2026-04-15 13:32 | 45.53833 | -11.35562 | 35114 ft | 397 kts | 257° |
| 2026-04-15 13:33 | 45.52385 | -11.43163 | 35113 ft | 398 kts | 257° |
| 2026-04-15 13:33 | 45.50937 | -11.50728 | 35110 ft | 398 kts | 256° |
| 2026-04-15 13:34 | 45.49485 | -11.58300 | 35111 ft | 398 kts | 256° |
| 2026-04-15 13:34 | 45.48020 | -11.65895 | 35107 ft | 398 kts | 256° |
| 2026-04-15 13:35 | 45.46560 | -11.73445 | 35108 ft | 397 kts | 256° |
| 2026-04-15 13:35 | 45.45091 | -11.81000 | 35103 ft | 398 kts | 256° |
| 2026-04-15 13:36 | 45.43608 | -11.88590 | 35102 ft | 398 kts | 256° |
| 2026-04-15 13:36 | 45.42125 | -11.96146 | 35102 ft | 397 kts | 255° |
| 2026-04-15 13:37 | 45.40638 | -12.03692 | 35104 ft | 397 kts | 256° |
| 2026-04-15 13:37 | 45.39151 | -12.11220 | 35103 ft | 398 kts | 256° |
| 2026-04-15 13:38 | 45.37660 | -12.18756 | 35104 ft | 398 kts | 256° |
| 2026-04-15 13:38 | 45.36152 | -12.26337 | 35103 ft | 398 kts | 256° |
| 2026-04-15 13:39 | 45.34659 | -12.33823 | 35101 ft | 398 kts | 256° |
| 2026-04-15 13:39 | 45.33146 | -12.41378 | 35104 ft | 398 kts | 256° |
| 2026-04-15 13:40 | 45.31629 | -12.48944 | 35102 ft | 399 kts | 256° |
| 2026-04-15 13:40 | 45.30114 | -12.56462 | 35105 ft | 398 kts | 256° |
| 2026-04-15 13:41 | 45.28583 | -12.64013 | 35103 ft | 398 kts | 256° |
| 2026-04-15 13:41 | 45.27053 | -12.71535 | 35104 ft | 399 kts | 256° |
| 2026-04-15 13:42 | 45.25512 | -12.79082 | 35102 ft | 399 kts | 256° |
| 2026-04-15 13:42 | 45.23976 | -12.86577 | 35102 ft | 400 kts | 256° |
| 2026-04-15 13:43 | 45.22419 | -12.94162 | 35100 ft | 399 kts | 256° |
| 2026-04-15 13:43 | 45.20871 | -13.01662 | 35101 ft | 399 kts | 256° |
| 2026-04-15 13:44 | 45.19309 | -13.09195 | 35103 ft | 400 kts | 256° |
| 2026-04-15 13:44 | 45.17737 | -13.16744 | 35103 ft | 400 kts | 256° |
| 2026-04-15 13:45 | 45.16167 | -13.24262 | 35103 ft | 400 kts | 256° |
| 2026-04-15 13:47 | 45.09850 | -13.54229 | 35105 ft | 399 kts | 256° |
| 2026-04-15 13:47 | 45.08250 | -13.61739 | 35109 ft | 399 kts | 256° |
| 2026-04-15 13:48 | 45.06648 | -13.69231 | 35108 ft | 399 kts | 255° |
| 2026-04-15 13:48 | 45.05046 | -13.76706 | 35108 ft | 399 kts | 255° |
| 2026-04-15 13:49 | 45.03440 | -13.84171 | 35108 ft | 399 kts | 255° |
| 2026-04-15 13:49 | 45.01820 | -13.91665 | 35108 ft | 399 kts | 255° |
| 2026-04-15 13:50 | 45.00161 | -13.99079 | 35108 ft | 400 kts | 253° |
| 2026-04-15 13:50 | 44.98101 | -14.06390 | 35110 ft | 401 kts | 250° |
| 2026-04-15 13:51 | 44.95957 | -14.13613 | 35110 ft | 401 kts | 250° |
| 2026-04-15 13:51 | 44.93804 | -14.20841 | 35107 ft | 401 kts | 250° |
| 2026-04-15 13:52 | 44.91635 | -14.28095 | 35109 ft | 402 kts | 250° |
| 2026-04-15 13:52 | 44.89463 | -14.35327 | 35107 ft | 403 kts | 250° |
| 2026-04-15 13:53 | 44.87285 | -14.42564 | 35108 ft | 403 kts | 250° |
| 2026-04-15 13:53 | 44.85093 | -14.49825 | 35107 ft | 403 kts | 250° |
| 2026-04-15 13:54 | 44.82910 | -14.57035 | 35106 ft | 403 kts | 250° |
| 2026-04-15 13:54 | 44.80705 | -14.64296 | 35103 ft | 403 kts | 250° |
| 2026-04-15 13:55 | 44.78498 | -14.71536 | 35110 ft | 403 kts | 250° |
| 2026-04-15 13:55 | 44.76293 | -14.78751 | 35103 ft | 403 kts | 250° |
| 2026-04-15 13:56 | 44.74097 | -14.85924 | 35102 ft | 403 kts | 250° |
| 2026-04-15 13:56 | 44.71881 | -14.93132 | 35097 ft | 403 kts | 250° |
| 2026-04-15 13:57 | 44.69659 | -15.00348 | 35103 ft | 403 kts | 250° |
| 2026-04-15 13:57 | 44.67429 | -15.07572 | 35098 ft | 403 kts | 249° |
| 2026-04-15 13:58 | 44.65199 | -15.14767 | 35103 ft | 403 kts | 249° |
| 2026-04-15 13:58 | 44.62970 | -15.21930 | 35104 ft | 404 kts | 250° |
| 2026-04-15 13:59 | 44.60729 | -15.29135 | 35102 ft | 405 kts | 250° |
| 2026-04-15 13:59 | 44.58488 | -15.36317 | 35107 ft | 405 kts | 250° |
| 2026-04-15 14:00 | 44.56229 | -15.43527 | 35101 ft | 405 kts | 250° |
| 2026-04-15 14:00 | 44.53960 | -15.50748 | 35107 ft | 405 kts | 250° |
| 2026-04-15 14:01 | 44.50572 | -15.61504 | 35104 ft | 404 kts | 249° |
| 2026-04-15 14:02 | 44.48295 | -15.68697 | 35108 ft | 405 kts | 249° |
| 2026-04-15 14:02 | 44.46016 | -15.75881 | 35101 ft | 405 kts | 249° |
| 2026-04-15 14:03 | 44.43730 | -15.83062 | 35102 ft | 405 kts | 249° |
| 2026-04-15 14:03 | 44.41447 | -15.90217 | 35106 ft | 406 kts | 249° |
| 2026-04-15 14:04 | 44.39146 | -15.97404 | 35103 ft | 406 kts | 249° |
| 2026-04-15 14:04 | 44.36845 | -16.04583 | 35109 ft | 406 kts | 249° |
| 2026-04-15 14:05 | 44.34546 | -16.11731 | 35106 ft | 405 kts | 249° |
| 2026-04-15 14:05 | 44.32240 | -16.18879 | 35109 ft | 405 kts | 249° |
| 2026-04-15 14:06 | 44.29932 | -16.26023 | 35106 ft | 405 kts | 249° |
| 2026-04-15 14:06 | 44.27613 | -16.33176 | 35108 ft | 405 kts | 249° |
| 2026-04-15 14:07 | 44.25301 | -16.40278 | 35105 ft | 405 kts | 249° |
| 2026-04-15 14:07 | 44.22984 | -16.47380 | 35110 ft | 405 kts | 249° |
| 2026-04-15 14:08 | 44.20647 | -16.54526 | 35108 ft | 405 kts | 249° |
| 2026-04-15 14:08 | 44.18324 | -16.61619 | 35110 ft | 405 kts | 249° |
| 2026-04-15 14:09 | 44.15994 | -16.68713 | 35110 ft | 404 kts | 248° |
| 2026-04-15 14:09 | 44.13647 | -16.75834 | 35110 ft | 405 kts | 248° |
| 2026-04-15 14:10 | 44.11314 | -16.82894 | 35111 ft | 405 kts | 248° |
| 2026-04-15 14:10 | 44.08951 | -16.90028 | 35113 ft | 405 kts | 248° |
| 2026-04-15 14:11 | 44.06609 | -16.97080 | 35106 ft | 405 kts | 248° |
| 2026-04-15 14:11 | 44.04248 | -17.04170 | 35105 ft | 404 kts | 248° |
| 2026-04-15 14:12 | 44.01886 | -17.11248 | 35103 ft | 405 kts | 248° |
| 2026-04-15 14:12 | 43.99532 | -17.18280 | 35107 ft | 404 kts | 247° |
| 2026-04-15 14:13 | 43.97161 | -17.25317 | 35105 ft | 405 kts | 248° |
| 2026-04-15 14:13 | 43.94783 | -17.32377 | 35102 ft | 404 kts | 247° |
| 2026-04-15 14:14 | 43.92396 | -17.39446 | 35107 ft | 404 kts | 248° |
| 2026-04-15 14:14 | 43.90029 | -17.46442 | 35110 ft | 405 kts | 247° |
| 2026-04-15 14:15 | 43.87638 | -17.53495 | 35115 ft | 405 kts | 248° |
| 2026-04-15 14:15 | 43.85239 | -17.60552 | 35111 ft | 405 kts | 247° |
| 2026-04-15 14:16 | 43.82854 | -17.67546 | 35113 ft | 405 kts | 246° |
| 2026-04-15 14:16 | 43.80442 | -17.74606 | 35116 ft | 405 kts | 246° |
| 2026-04-15 14:17 | 43.78045 | -17.81587 | 35115 ft | 405 kts | 247° |
| 2026-04-15 14:17 | 43.75633 | -17.88634 | 35122 ft | 406 kts | 247° |
| 2026-04-15 14:18 | 43.73224 | -17.95643 | 35122 ft | 406 kts | 247° |
| 2026-04-15 14:18 | 43.70798 | -18.02669 | 35129 ft | 406 kts | 246° |
| 2026-04-15 14:19 | 43.68365 | -18.09701 | 35126 ft | 406 kts | 246° |
| 2026-04-15 14:19 | 43.65936 | -18.16694 | 35127 ft | 406 kts | 246° |
| 2026-04-15 14:20 | 43.63499 | -18.23697 | 35124 ft | 407 kts | 246° |
| 2026-04-15 14:20 | 43.61037 | -18.30748 | 35126 ft | 407 kts | 246° |
| 2026-04-15 14:21 | 43.58587 | -18.37749 | 35127 ft | 407 kts | 246° |
| 2026-04-15 14:21 | 43.56126 | -18.44763 | 35129 ft | 408 kts | 246° |
| 2026-04-15 14:22 | 43.53668 | -18.51751 | 35123 ft | 408 kts | 246° |
| 2026-04-15 14:22 | 43.51204 | -18.58740 | 35124 ft | 408 kts | 246° |
| 2026-04-15 14:23 | 43.48721 | -18.65758 | 35121 ft | 408 kts | 246° |
| 2026-04-15 14:23 | 43.46252 | -18.72730 | 35123 ft | 407 kts | 246° |
| 2026-04-15 14:24 | 43.43770 | -18.79708 | 35125 ft | 408 kts | 246° |
| 2026-04-15 14:24 | 43.41273 | -18.86716 | 35121 ft | 407 kts | 245° |
| 2026-04-15 14:25 | 43.38787 | -18.93684 | 35121 ft | 408 kts | 245° |
| 2026-04-15 14:25 | 43.36301 | -19.00619 | 35121 ft | 406 kts | 246° |
| 2026-04-15 14:26 | 43.33805 | -19.07571 | 35122 ft | 408 kts | 245° |
| 2026-04-15 14:26 | 43.31297 | -19.14541 | 35119 ft | 408 kts | 246° |
| 2026-04-15 14:27 | 43.28782 | -19.21514 | 35122 ft | 409 kts | 246° |
| 2026-04-15 14:27 | 43.26272 | -19.28468 | 35122 ft | 409 kts | 245° |
| 2026-04-15 14:28 | 43.23751 | -19.35427 | 35120 ft | 409 kts | 245° |
| 2026-04-15 14:28 | 43.21231 | -19.42360 | 35124 ft | 409 kts | 245° |
| 2026-04-15 14:29 | 43.18684 | -19.49349 | 35130 ft | 409 kts | 245° |
| 2026-04-15 14:29 | 43.16149 | -19.56288 | 35127 ft | 409 kts | 245° |
| 2026-04-15 14:30 | 43.13604 | -19.63230 | 35129 ft | 409 kts | 245° |
| 2026-04-15 14:30 | 43.12344 | -19.66660 | 35258 ft | 409 kts | 245° |
| 2026-04-15 14:30 | 43.11072 | -19.70119 | 35206 ft | 408 kts | 245° |
| 2026-04-15 14:31 | 43.08534 | -19.77008 | 35142 ft | 408 kts | 245° |
| 2026-04-15 14:31 | 43.05975 | -19.83940 | 35136 ft | 408 kts | 245° |
| 2026-04-15 14:32 | 43.03414 | -19.90855 | 35129 ft | 409 kts | 245° |
| 2026-04-15 14:32 | 43.00852 | -19.97760 | 35127 ft | 409 kts | 244° |
| 2026-04-15 14:33 | 42.98312 | -20.04652 | 35130 ft | 409 kts | 245° |
| 2026-04-15 14:33 | 42.95779 | -20.11575 | 35129 ft | 409 kts | 245° |
| 2026-04-15 14:34 | 42.93235 | -20.18501 | 35132 ft | 409 kts | 245° |
| 2026-04-15 14:34 | 42.90675 | -20.25447 | 35130 ft | 409 kts | 245° |
| 2026-04-15 14:35 | 42.88128 | -20.32326 | 35135 ft | 409 kts | 245° |
| 2026-04-15 14:35 | 42.85572 | -20.39214 | 35136 ft | 410 kts | 245° |
| 2026-04-15 14:36 | 42.82996 | -20.46139 | 35135 ft | 410 kts | 245° |
| 2026-04-15 14:36 | 42.80423 | -20.53040 | 35136 ft | 410 kts | 245° |
| 2026-04-15 14:37 | 42.77839 | -20.59957 | 35136 ft | 410 kts | 244° |
| 2026-04-15 14:37 | 42.75254 | -20.66855 | 35140 ft | 410 kts | 244° |
| 2026-04-15 14:38 | 42.72667 | -20.73747 | 35139 ft | 410 kts | 244° |
| 2026-04-15 14:38 | 42.70083 | -20.80608 | 35139 ft | 410 kts | 244° |
| 2026-04-15 14:39 | 42.67497 | -20.87456 | 35137 ft | 410 kts | 244° |
| 2026-04-15 14:39 | 42.64894 | -20.94337 | 35138 ft | 411 kts | 244° |
| 2026-04-15 14:40 | 42.62292 | -21.01202 | 35137 ft | 411 kts | 244° |
| 2026-04-15 14:40 | 42.59676 | -21.08079 | 35138 ft | 411 kts | 244° |
| 2026-04-15 14:41 | 42.57060 | -21.14937 | 35137 ft | 411 kts | 244° |
| 2026-04-15 14:41 | 42.54426 | -21.21832 | 35138 ft | 412 kts | 244° |
| 2026-04-15 14:42 | 42.51799 | -21.28692 | 35138 ft | 411 kts | 244° |
| 2026-04-15 14:42 | 42.49169 | -21.35543 | 35137 ft | 411 kts | 244° |
| 2026-04-15 14:43 | 42.46541 | -21.42375 | 35138 ft | 411 kts | 244° |
| 2026-04-15 14:43 | 42.43909 | -21.49206 | 35138 ft | 411 kts | 243° |
| 2026-04-15 14:44 | 42.41261 | -21.56061 | 35136 ft | 411 kts | 243° |
| 2026-04-15 14:44 | 42.38624 | -21.62871 | 35140 ft | 412 kts | 243° |
| 2026-04-15 14:45 | 42.35959 | -21.69723 | 35140 ft | 412 kts | 243° |
| 2026-04-15 14:45 | 42.33297 | -21.76557 | 35140 ft | 413 kts | 243° |
| 2026-04-15 14:46 | 42.30619 | -21.83422 | 35139 ft | 413 kts | 243° |
| 2026-04-15 14:46 | 42.27941 | -21.90268 | 35139 ft | 413 kts | 243° |
| 2026-04-15 14:47 | 42.25280 | -21.97050 | 35140 ft | 412 kts | 243° |
| 2026-04-15 14:47 | 42.22609 | -22.03868 | 35142 ft | 412 kts | 243° |
| 2026-04-15 14:48 | 42.19923 | -22.10695 | 35142 ft | 412 kts | 243° |
| 2026-04-15 14:48 | 42.17234 | -22.17509 | 35141 ft | 412 kts | 243° |
| 2026-04-15 14:49 | 42.14560 | -22.24269 | 35141 ft | 412 kts | 243° |
| 2026-04-15 14:49 | 42.11869 | -22.31053 | 35145 ft | 412 kts | 243° |
| 2026-04-15 14:50 | 42.09176 | -22.37829 | 35146 ft | 413 kts | 243° |
| 2026-04-15 14:50 | 42.06471 | -22.44620 | 35151 ft | 413 kts | 242° |
| 2026-04-15 14:51 | 42.03748 | -22.51437 | 35151 ft | 413 kts | 242° |
| 2026-04-15 14:51 | 42.01034 | -22.58213 | 35151 ft | 414 kts | 242° |
| 2026-04-15 14:52 | 41.98313 | -22.64988 | 35152 ft | 414 kts | 242° |
| 2026-04-15 14:52 | 41.95582 | -22.71779 | 35154 ft | 414 kts | 242° |
| 2026-04-15 14:53 | 41.92844 | -22.78571 | 35140 ft | 414 kts | 242° |
| 2026-04-15 14:53 | 41.90120 | -22.85314 | 35137 ft | 415 kts | 242° |
| 2026-04-15 14:54 | 41.87363 | -22.92115 | 35142 ft | 415 kts | 242° |
| 2026-04-15 14:54 | 41.84611 | -22.98892 | 35155 ft | 414 kts | 242° |
| 2026-04-15 14:55 | 41.81854 | -23.05670 | 35156 ft | 414 kts | 242° |
| 2026-04-15 14:55 | 41.79114 | -23.12391 | 35151 ft | 414 kts | 242° |
| 2026-04-15 14:56 | 41.76349 | -23.19156 | 35152 ft | 414 kts | 242° |
| 2026-04-15 14:56 | 41.73584 | -23.25912 | 35155 ft | 414 kts | 242° |
| 2026-04-15 14:57 | 41.70834 | -23.32612 | 35156 ft | 415 kts | 242° |
| 2026-04-15 14:57 | 41.68055 | -23.39364 | 35158 ft | 416 kts | 242° |
| 2026-04-15 14:58 | 41.65259 | -23.46143 | 35162 ft | 416 kts | 242° |
| 2026-04-15 14:58 | 41.62468 | -23.52887 | 35159 ft | 416 kts | 242° |
| 2026-04-15 14:59 | 41.59687 | -23.59593 | 35158 ft | 416 kts | 242° |
| 2026-04-15 14:59 | 41.56889 | -23.66321 | 35158 ft | 416 kts | 241° |
| 2026-04-15 15:00 | 41.54074 | -23.73078 | 35157 ft | 416 kts | 241° |
| 2026-04-15 15:00 | 41.51259 | -23.79821 | 35155 ft | 417 kts | 241° |
| 2026-04-15 15:01 | 41.48445 | -23.86549 | 35153 ft | 417 kts | 241° |
| 2026-04-15 15:01 | 41.45633 | -23.93258 | 35158 ft | 416 kts | 241° |
| 2026-04-15 15:02 | 41.42811 | -23.99976 | 35159 ft | 416 kts | 241° |
| 2026-04-15 15:02 | 41.40004 | -24.06644 | 35157 ft | 415 kts | 241° |
| 2026-04-15 15:03 | 41.37174 | -24.13350 | 35156 ft | 415 kts | 241° |
| 2026-04-15 15:03 | 41.34341 | -24.20048 | 35165 ft | 415 kts | 241° |
| 2026-04-15 15:04 | 41.31522 | -24.26698 | 35168 ft | 415 kts | 241° |
| 2026-04-15 15:04 | 41.28688 | -24.33369 | 35172 ft | 415 kts | 241° |
| 2026-04-15 15:05 | 41.25843 | -24.40046 | 35173 ft | 416 kts | 240° |
| 2026-04-15 15:05 | 41.23000 | -24.46711 | 35173 ft | 416 kts | 241° |
| 2026-04-15 15:06 | 41.18736 | -24.56671 | 35172 ft | 416 kts | 241° |
| 2026-04-15 15:06 | 41.15864 | -24.63362 | 35172 ft | 417 kts | 240° |
| 2026-04-15 15:07 | 41.13005 | -24.70005 | 35161 ft | 417 kts | 240° |
| 2026-04-15 15:07 | 41.10129 | -24.76677 | 35152 ft | 420 kts | 240° |
| 2026-04-15 15:08 | 41.07233 | -24.83377 | 35150 ft | 420 kts | 240° |
| 2026-04-15 15:08 | 41.04331 | -24.90072 | 35147 ft | 421 kts | 240° |
| 2026-04-15 15:09 | 41.01426 | -24.96761 | 35147 ft | 421 kts | 240° |
| 2026-04-15 15:09 | 40.98715 | -25.03586 | 35153 ft | 421 kts | 244° |
| 2026-04-15 15:10 | 40.96153 | -25.10555 | 35151 ft | 420 kts | 244° |
| 2026-04-15 15:10 | 40.93590 | -25.17501 | 35153 ft | 420 kts | 244° |
| 2026-04-15 15:11 | 40.91042 | -25.24381 | 35155 ft | 420 kts | 244° |
| 2026-04-15 15:11 | 40.88481 | -25.31300 | 35154 ft | 419 kts | 244° |
| 2026-04-15 15:12 | 40.85924 | -25.38185 | 35164 ft | 419 kts | 244° |
| 2026-04-15 15:12 | 40.83361 | -25.45056 | 35161 ft | 419 kts | 244° |
| 2026-04-15 15:13 | 40.80780 | -25.51961 | 35165 ft | 420 kts | 244° |
| 2026-04-15 15:13 | 40.78202 | -25.58848 | 35160 ft | 419 kts | 244° |
| 2026-04-15 15:14 | 40.75619 | -25.65727 | 35166 ft | 420 kts | 243° |
| 2026-04-15 15:14 | 40.73043 | -25.72576 | 35154 ft | 419 kts | 243° |
| 2026-04-15 15:15 | 40.70443 | -25.79472 | 35153 ft | 420 kts | 243° |
| 2026-04-15 15:15 | 40.67859 | -25.86311 | 35161 ft | 420 kts | 243° |
| 2026-04-15 15:16 | 40.65255 | -25.93184 | 35149 ft | 419 kts | 243° |
| 2026-04-15 15:16 | 40.62669 | -25.99996 | 35153 ft | 420 kts | 243° |
| 2026-04-15 15:17 | 40.60063 | -26.06846 | 35156 ft | 420 kts | 243° |
| 2026-04-15 15:17 | 40.57450 | -26.13700 | 35159 ft | 419 kts | 243° |
| 2026-04-15 15:18 | 40.54853 | -26.20495 | 35156 ft | 418 kts | 243° |
| 2026-04-15 15:18 | 40.52238 | -26.27318 | 35157 ft | 418 kts | 243° |
| 2026-04-15 15:19 | 40.49625 | -26.34123 | 35156 ft | 419 kts | 243° |
| 2026-04-15 15:19 | 40.47006 | -26.40924 | 35161 ft | 419 kts | 243° |
| 2026-04-15 15:20 | 40.44384 | -26.47721 | 35161 ft | 419 kts | 243° |
| 2026-04-15 15:20 | 40.41736 | -26.54568 | 35165 ft | 420 kts | 243° |
| 2026-04-15 15:21 | 40.39095 | -26.61376 | 35165 ft | 420 kts | 243° |
| 2026-04-15 15:21 | 40.36462 | -26.68150 | 35172 ft | 420 kts | 243° |
| 2026-04-15 15:22 | 40.33804 | -26.74974 | 35174 ft | 420 kts | 243° |
| 2026-04-15 15:22 | 40.31157 | -26.81756 | 35170 ft | 419 kts | 243° |
| 2026-04-15 15:23 | 40.28502 | -26.88543 | 35167 ft | 419 kts | 243° |
| 2026-04-15 15:23 | 40.25854 | -26.95295 | 35173 ft | 420 kts | 243° |
| 2026-04-15 15:24 | 40.23190 | -27.02072 | 35171 ft | 420 kts | 243° |
| 2026-04-15 15:24 | 40.20520 | -27.08851 | 35172 ft | 420 kts | 243° |
| 2026-04-15 15:25 | 40.17851 | -27.15620 | 35171 ft | 421 kts | 243° |
| 2026-04-15 15:25 | 40.15164 | -27.22410 | 35176 ft | 420 kts | 243° |
| 2026-04-15 15:26 | 40.12484 | -27.29165 | 35169 ft | 420 kts | 243° |
| 2026-04-15 15:26 | 40.09797 | -27.35919 | 35174 ft | 420 kts | 243° |
| 2026-04-15 15:27 | 40.07118 | -27.42654 | 35177 ft | 420 kts | 243° |
| 2026-04-15 15:27 | 40.04427 | -27.49401 | 35174 ft | 420 kts | 243° |
| 2026-04-15 15:28 | 40.01738 | -27.56122 | 35177 ft | 421 kts | 243° |
| 2026-04-15 15:28 | 39.99033 | -27.62869 | 35180 ft | 421 kts | 243° |
| 2026-04-15 15:29 | 39.96327 | -27.69604 | 35182 ft | 421 kts | 242° |
| 2026-04-15 15:29 | 39.93622 | -27.76318 | 35177 ft | 421 kts | 242° |
| 2026-04-15 15:30 | 39.90899 | -27.83061 | 35177 ft | 420 kts | 242° |
| 2026-04-15 15:30 | 39.88181 | -27.89777 | 35179 ft | 421 kts | 242° |
| 2026-04-15 15:31 | 39.85452 | -27.96506 | 35174 ft | 421 kts | 242° |
| 2026-04-15 15:31 | 39.82724 | -28.03223 | 35177 ft | 421 kts | 242° |
| 2026-04-15 15:32 | 39.79993 | -28.09925 | 35178 ft | 421 kts | 242° |
| 2026-04-15 15:32 | 39.77261 | -28.16619 | 35175 ft | 420 kts | 242° |
| 2026-04-15 15:33 | 39.74548 | -28.23252 | 35171 ft | 419 kts | 242° |
| 2026-04-15 15:33 | 39.71803 | -28.29946 | 35172 ft | 420 kts | 242° |
| 2026-04-15 15:34 | 39.69066 | -28.36610 | 35170 ft | 420 kts | 242° |
| 2026-04-15 15:34 | 39.66323 | -28.43263 | 35168 ft | 420 kts | 242° |
| 2026-04-15 15:35 | 39.63560 | -28.49950 | 35168 ft | 420 kts | 242° |
| 2026-04-15 15:35 | 39.60818 | -28.56575 | 35171 ft | 420 kts | 242° |
| 2026-04-15 15:36 | 39.58055 | -28.63241 | 35171 ft | 421 kts | 242° |
| 2026-04-15 15:36 | 39.55279 | -28.69925 | 35169 ft | 420 kts | 241° |
| 2026-04-15 15:37 | 39.52523 | -28.76543 | 35169 ft | 420 kts | 242° |
| 2026-04-15 15:37 | 39.49752 | -28.83187 | 35166 ft | 420 kts | 242° |
| 2026-04-15 15:38 | 39.46970 | -28.89843 | 35162 ft | 420 kts | 241° |
| 2026-04-15 15:38 | 39.44206 | -28.96441 | 35168 ft | 421 kts | 241° |
| 2026-04-15 15:39 | 39.41419 | -29.03075 | 35164 ft | 420 kts | 241° |
| 2026-04-15 15:39 | 39.38631 | -29.09699 | 35167 ft | 420 kts | 241° |
| 2026-04-15 15:40 | 39.35852 | -29.16287 | 35171 ft | 421 kts | 242° |
| 2026-04-15 15:40 | 39.33053 | -29.22908 | 35170 ft | 420 kts | 241° |
| 2026-04-15 15:41 | 39.30264 | -29.29492 | 35172 ft | 420 kts | 242° |
| 2026-04-15 15:41 | 39.27453 | -29.36115 | 35175 ft | 421 kts | 242° |
| 2026-04-15 15:42 | 39.24654 | -29.42695 | 35174 ft | 420 kts | 242° |
| 2026-04-15 15:42 | 39.21855 | -29.49262 | 35175 ft | 420 kts | 242° |
| 2026-04-15 15:43 | 39.19046 | -29.55840 | 35175 ft | 419 kts | 241° |
| 2026-04-15 15:43 | 39.16236 | -29.62406 | 35179 ft | 419 kts | 241° |
| 2026-04-15 15:44 | 39.13425 | -29.68945 | 35187 ft | 420 kts | 241° |
| 2026-04-15 15:44 | 39.10597 | -29.75517 | 35184 ft | 419 kts | 240° |
| 2026-04-15 15:45 | 39.07778 | -29.82051 | 35283 ft | 422 kts | 241° |
| 2026-04-15 15:45 | 39.06354 | -29.85346 | 35624 ft | 420 kts | 241° |
| 2026-04-15 15:45 | 39.04945 | -29.88603 | 35978 ft | 418 kts | 241° |
| 2026-04-15 15:46 | 39.03543 | -29.91844 | 36178 ft | 418 kts | 241° |
| 2026-04-15 15:46 | 39.02119 | -29.95139 | 36175 ft | 418 kts | 241° |
| 2026-04-15 15:46 | 38.99578 | -30.01802 | 36171 ft | 417 kts | 246° |
| 2026-04-15 15:47 | 38.97467 | -30.08735 | 36170 ft | 417 kts | 248° |
| 2026-04-15 15:47 | 38.95435 | -30.15633 | 36169 ft | 417 kts | 248° |
| 2026-04-15 15:48 | 38.93383 | -30.22584 | 36176 ft | 417 kts | 249° |
| 2026-04-15 15:48 | 38.91332 | -30.29529 | 36180 ft | 418 kts | 249° |
| 2026-04-15 15:49 | 38.89268 | -30.36495 | 36177 ft | 417 kts | 249° |
| 2026-04-15 15:49 | 38.87221 | -30.43383 | 36172 ft | 417 kts | 249° |
| 2026-04-15 15:50 | 38.85156 | -30.50319 | 36175 ft | 417 kts | 249° |
| 2026-04-15 15:50 | 38.83084 | -30.57253 | 36181 ft | 416 kts | 249° |
| 2026-04-15 15:51 | 38.81013 | -30.64164 | 36181 ft | 416 kts | 249° |
| 2026-04-15 15:51 | 38.79987 | -30.67586 | 35942 ft | 415 kts | 248° |
| 2026-04-15 15:51 | 38.78947 | -30.71046 | 36078 ft | 417 kts | 248° |
| 2026-04-15 15:52 | 38.77907 | -30.74507 | 36434 ft | 418 kts | 248° |
| 2026-04-15 15:52 | 38.76861 | -30.77979 | 36321 ft | 416 kts | 248° |
| 2026-04-15 15:52 | 38.74784 | -30.84864 | 36199 ft | 415 kts | 249° |
| 2026-04-15 15:53 | 38.73754 | -30.88268 | 35878 ft | 415 kts | 248° |
| 2026-04-15 15:53 | 38.72707 | -30.91729 | 36023 ft | 416 kts | 248° |
| 2026-04-15 15:53 | 38.70621 | -30.98604 | 36151 ft | 418 kts | 248° |
| 2026-04-15 15:54 | 38.68523 | -31.05503 | 36178 ft | 418 kts | 249° |
| 2026-04-15 15:54 | 38.66413 | -31.12429 | 36182 ft | 418 kts | 249° |
| 2026-04-15 15:55 | 38.65363 | -31.15868 | 36514 ft | 418 kts | 249° |
| 2026-04-15 15:55 | 38.64315 | -31.19294 | 36105 ft | 416 kts | 249° |
| 2026-04-15 15:55 | 38.62210 | -31.26168 | 36170 ft | 418 kts | 249° |
| 2026-04-15 15:56 | 38.60089 | -31.33073 | 36180 ft | 418 kts | 248° |
| 2026-04-15 15:56 | 38.57965 | -31.39960 | 36184 ft | 417 kts | 249° |
| 2026-04-15 15:57 | 38.55842 | -31.46833 | 36185 ft | 418 kts | 249° |
| 2026-04-15 15:57 | 38.53716 | -31.53702 | 36183 ft | 417 kts | 249° |
| 2026-04-15 15:58 | 38.51584 | -31.60574 | 36184 ft | 417 kts | 249° |
| 2026-04-15 15:58 | 38.49444 | -31.67452 | 36186 ft | 418 kts | 248° |
| 2026-04-15 15:59 | 38.47293 | -31.74351 | 36191 ft | 419 kts | 248° |
| 2026-04-15 15:59 | 38.45156 | -31.81190 | 36192 ft | 419 kts | 248° |
| 2026-04-15 16:00 | 38.42994 | -31.88092 | 36192 ft | 419 kts | 248° |
| 2026-04-15 16:00 | 38.40834 | -31.94969 | 36190 ft | 418 kts | 248° |
| 2026-04-15 16:01 | 38.38684 | -32.01799 | 36187 ft | 417 kts | 249° |
| 2026-04-15 16:01 | 38.36529 | -32.08633 | 36190 ft | 418 kts | 248° |
| 2026-04-15 16:02 | 38.34362 | -32.15487 | 36188 ft | 417 kts | 249° |
| 2026-04-15 16:02 | 38.32189 | -32.22339 | 36185 ft | 418 kts | 249° |
| 2026-04-15 16:03 | 38.30032 | -32.29127 | 36186 ft | 418 kts | 248° |
| 2026-04-15 16:03 | 38.27846 | -32.35986 | 36189 ft | 418 kts | 249° |
| 2026-04-15 16:04 | 38.25669 | -32.42802 | 36186 ft | 419 kts | 249° |
| 2026-04-15 16:04 | 38.23470 | -32.49664 | 36193 ft | 420 kts | 249° |
| 2026-04-15 16:05 | 38.21273 | -32.56511 | 36191 ft | 419 kts | 249° |
| 2026-04-15 16:05 | 38.19071 | -32.63356 | 36192 ft | 419 kts | 249° |
| 2026-04-15 16:06 | 38.16864 | -32.70197 | 36192 ft | 420 kts | 248° |
| 2026-04-15 16:06 | 38.14653 | -32.77038 | 36192 ft | 420 kts | 248° |
| 2026-04-15 16:07 | 38.12445 | -32.83851 | 36192 ft | 420 kts | 248° |
| 2026-04-15 16:08 | 38.09101 | -32.94135 | 36188 ft | 420 kts | 248° |
| 2026-04-15 16:08 | 38.06883 | -33.00937 | 36191 ft | 419 kts | 248° |
| 2026-04-15 16:09 | 38.04651 | -33.07769 | 36191 ft | 420 kts | 248° |
| 2026-04-15 16:09 | 38.02418 | -33.14584 | 36383 ft | 420 kts | 248° |
| 2026-04-15 16:09 | 38.01309 | -33.17964 | 36258 ft | 419 kts | 248° |
| 2026-04-15 16:10 | 38.00180 | -33.21399 | 36218 ft | 420 kts | 248° |
| 2026-04-15 16:10 | 37.97953 | -33.28168 | 36026 ft | 419 kts | 248° |
| 2026-04-15 16:11 | 37.95698 | -33.34996 | 36160 ft | 421 kts | 249° |
| 2026-04-15 16:11 | 37.94561 | -33.38437 | 36538 ft | 421 kts | 249° |
| 2026-04-15 16:11 | 37.93440 | -33.41823 | 36350 ft | 420 kts | 249° |
| 2026-04-15 16:11 | 37.92309 | -33.45240 | 36244 ft | 420 kts | 249° |
| 2026-04-15 16:12 | 37.91185 | -33.48627 | 36218 ft | 421 kts | 249° |
| 2026-04-15 16:12 | 37.88928 | -33.55419 | 36193 ft | 420 kts | 249° |
| 2026-04-15 16:13 | 37.86669 | -33.62206 | 36193 ft | 421 kts | 249° |
| 2026-04-15 16:13 | 37.84400 | -33.69004 | 36196 ft | 421 kts | 248° |
| 2026-04-15 16:14 | 37.82116 | -33.75832 | 36193 ft | 421 kts | 248° |
| 2026-04-15 16:14 | 37.79844 | -33.82602 | 36196 ft | 422 kts | 249° |
| 2026-04-15 16:15 | 37.77546 | -33.89437 | 36196 ft | 422 kts | 249° |
| 2026-04-15 16:15 | 37.75256 | -33.96231 | 36195 ft | 422 kts | 249° |
| 2026-04-15 16:16 | 37.72953 | -34.03051 | 36192 ft | 423 kts | 249° |
| 2026-04-15 16:16 | 37.70647 | -34.09862 | 36193 ft | 425 kts | 249° |
| 2026-04-15 16:17 | 37.68335 | -34.16679 | 36191 ft | 425 kts | 249° |
| 2026-04-15 16:17 | 37.66003 | -34.23535 | 36195 ft | 425 kts | 249° |
| 2026-04-15 16:18 | 37.63683 | -34.30340 | 36187 ft | 425 kts | 249° |
| 2026-04-15 16:18 | 37.61337 | -34.37208 | 36191 ft | 426 kts | 249° |
| 2026-04-15 16:19 | 37.59003 | -34.44021 | 36194 ft | 427 kts | 249° |
| 2026-04-15 16:19 | 37.56645 | -34.50891 | 36194 ft | 428 kts | 249° |
| 2026-04-15 16:20 | 37.54281 | -34.57761 | 36191 ft | 428 kts | 249° |
| 2026-04-15 16:20 | 37.51920 | -34.64611 | 36191 ft | 428 kts | 249° |
| 2026-04-15 16:21 | 37.49544 | -34.71482 | 36204 ft | 430 kts | 248° |
| 2026-04-15 16:21 | 37.47170 | -34.78331 | 36198 ft | 430 kts | 249° |
| 2026-04-15 16:22 | 37.44780 | -34.85215 | 36198 ft | 429 kts | 249° |
| 2026-04-15 16:22 | 37.42393 | -34.92073 | 36199 ft | 430 kts | 249° |
| 2026-04-15 16:23 | 37.40000 | -34.98935 | 36199 ft | 431 kts | 249° |
| 2026-04-15 16:23 | 37.37592 | -35.05825 | 36195 ft | 431 kts | 249° |
| 2026-04-15 16:24 | 37.35192 | -35.12675 | 36198 ft | 431 kts | 248° |
| 2026-04-15 16:24 | 37.32780 | -35.19530 | 36193 ft | 432 kts | 249° |
| 2026-04-15 16:25 | 37.30342 | -35.26454 | 36196 ft | 432 kts | 249° |
| 2026-04-15 16:25 | 37.27919 | -35.33323 | 36197 ft | 434 kts | 249° |
| 2026-04-15 16:26 | 37.25472 | -35.40241 | 36200 ft | 434 kts | 249° |
| 2026-04-15 16:26 | 37.23031 | -35.47130 | 36202 ft | 435 kts | 249° |
| 2026-04-15 16:27 | 37.20562 | -35.54079 | 36203 ft | 436 kts | 249° |
| 2026-04-15 16:27 | 37.18097 | -35.60996 | 36201 ft | 436 kts | 249° |
| 2026-04-15 16:28 | 37.15633 | -35.67902 | 36201 ft | 436 kts | 248° |
| 2026-04-15 16:28 | 37.13150 | -35.74841 | 36200 ft | 437 kts | 248° |
| 2026-04-15 16:29 | 37.10669 | -35.81762 | 36200 ft | 438 kts | 249° |
| 2026-04-15 16:29 | 37.08189 | -35.88669 | 36206 ft | 439 kts | 248° |
| 2026-04-15 16:30 | 37.05678 | -35.95639 | 36206 ft | 439 kts | 249° |
| 2026-04-15 16:30 | 37.03170 | -36.02591 | 36212 ft | 441 kts | 249° |
| 2026-04-15 16:31 | 37.00653 | -36.09548 | 36212 ft | 441 kts | 249° |
| 2026-04-15 16:31 | 36.98125 | -36.16523 | 36212 ft | 441 kts | 249° |
| 2026-04-15 16:32 | 36.95599 | -36.23474 | 36214 ft | 442 kts | 249° |
| 2026-04-15 16:32 | 36.93048 | -36.30471 | 36213 ft | 441 kts | 249° |
| 2026-04-15 16:33 | 36.90517 | -36.37404 | 36215 ft | 442 kts | 249° |
| 2026-04-15 16:33 | 36.87962 | -36.44382 | 36215 ft | 442 kts | 249° |
| 2026-04-15 16:34 | 36.85417 | -36.51323 | 36215 ft | 443 kts | 249° |
| 2026-04-15 16:34 | 36.82864 | -36.58269 | 36219 ft | 443 kts | 249° |
| 2026-04-15 16:35 | 36.80294 | -36.65245 | 36218 ft | 443 kts | 248° |
| 2026-04-15 16:35 | 36.77716 | -36.72224 | 36217 ft | 443 kts | 248° |
| 2026-04-15 16:36 | 36.75155 | -36.79144 | 36223 ft | 443 kts | 248° |
| 2026-04-15 16:36 | 36.72572 | -36.86106 | 36224 ft | 444 kts | 248° |
| 2026-04-15 16:37 | 36.69974 | -36.93095 | 36226 ft | 445 kts | 248° |
| 2026-04-15 16:37 | 36.67374 | -37.00072 | 36221 ft | 445 kts | 248° |
| 2026-04-15 16:38 | 36.64773 | -37.07036 | 36229 ft | 445 kts | 248° |
| 2026-04-15 16:38 | 36.62175 | -37.13976 | 36226 ft | 446 kts | 248° |
| 2026-04-15 16:39 | 36.59566 | -37.20932 | 36227 ft | 446 kts | 248° |
| 2026-04-15 16:39 | 36.56935 | -37.27929 | 36224 ft | 446 kts | 248° |
| 2026-04-15 16:40 | 36.54314 | -37.34884 | 36218 ft | 445 kts | 248° |
| 2026-04-15 16:40 | 36.51702 | -37.41804 | 36214 ft | 446 kts | 248° |
| 2026-04-15 16:41 | 36.49053 | -37.48803 | 36214 ft | 446 kts | 248° |
| 2026-04-15 16:41 | 36.46415 | -37.55756 | 36217 ft | 447 kts | 248° |
| 2026-04-15 16:42 | 36.43769 | -37.62719 | 36220 ft | 448 kts | 248° |
| 2026-04-15 16:42 | 36.41118 | -37.69675 | 36220 ft | 448 kts | 248° |
| 2026-04-15 16:43 | 36.38455 | -37.76649 | 36216 ft | 448 kts | 248° |
| 2026-04-15 16:43 | 36.35801 | -37.83583 | 36221 ft | 448 kts | 248° |
| 2026-04-15 16:44 | 36.33124 | -37.90564 | 36226 ft | 448 kts | 248° |
| 2026-04-15 16:44 | 36.30462 | -37.97496 | 36226 ft | 448 kts | 248° |
| 2026-04-15 16:45 | 36.27773 | -38.04458 | 36224 ft | 450 kts | 248° |
| 2026-04-15 16:45 | 36.25076 | -38.11431 | 36223 ft | 450 kts | 248° |
| 2026-04-15 16:46 | 36.22386 | -38.18376 | 36221 ft | 450 kts | 248° |
| 2026-04-15 16:46 | 36.19692 | -38.25324 | 36221 ft | 450 kts | 248° |
| 2026-04-15 16:47 | 36.16977 | -38.32313 | 36223 ft | 450 kts | 248° |
| 2026-04-15 16:47 | 36.14289 | -38.39222 | 36225 ft | 449 kts | 248° |
| 2026-04-15 16:48 | 36.11576 | -38.46175 | 36227 ft | 449 kts | 248° |
| 2026-04-15 16:48 | 36.08855 | -38.53131 | 36232 ft | 449 kts | 248° |
| 2026-04-15 16:49 | 36.06154 | -38.60021 | 36232 ft | 449 kts | 248° |
| 2026-04-15 16:49 | 36.03424 | -38.66973 | 36232 ft | 450 kts | 247° |
| 2026-04-15 16:50 | 36.00693 | -38.73906 | 36232 ft | 450 kts | 247° |
| 2026-04-15 16:50 | 35.97957 | -38.80841 | 36230 ft | 451 kts | 247° |
| 2026-04-15 16:51 | 35.95215 | -38.87773 | 36231 ft | 450 kts | 247° |
| 2026-04-15 16:51 | 35.92936 | -38.93528 | 36232 ft | 451 kts | 247° |